Terminal Aerodrome Forecast
Issued by NWS

Home | Current Version | Previous Version | Text Only | Print | Product List | Glossary On
Versions: 1 2 3 4 5 6 7 8 9 10 11 12 13 14 15
000
FTUS44 KSJT 162338
TAFSOA
TAF
KSOA 162338Z 1700/1724 18007KT P6SM OVC006
     FM170600 19004KT 6SM BR SKC
     FM170900 20003KT 3SM BR OVC015
     FM171200 21002KT P6SM OVC250=

USA.gov is the U.S. government's official web portal to all federal, state and local government web resources and services.